sensor_id;sensor_type;location;lat;lon;timestamp;temperature;humidity
52963;DHT22;38827;53.024;6.596;2022-08-01T00:01:53;18.40;86.40
52963;DHT22;38827;53.024;6.596;2022-08-01T00:04:18;18.40;86.30
52963;DHT22;38827;53.024;6.596;2022-08-01T00:06:44;18.40;86.40
52963;DHT22;38827;53.024;6.596;2022-08-01T00:09:09;18.30;86.40
52963;DHT22;38827;53.024;6.596;2022-08-01T00:11:35;18.30;86.40
52963;DHT22;38827;53.024;6.596;2022-08-01T00:14:01;18.30;86.50
52963;DHT22;38827;53.024;6.596;2022-08-01T00:16:27;18.30;86.50
52963;DHT22;38827;53.024;6.596;2022-08-01T00:18:53;18.30;86.70
52963;DHT22;38827;53.024;6.596;2022-08-01T00:21:19;18.30;86.60
52963;DHT22;38827;53.024;6.596;2022-08-01T00:23:45;18.30;86.70
52963;DHT22;38827;53.024;6.596;2022-08-01T00:26:13;18.20;86.70
52963;DHT22;38827;53.024;6.596;2022-08-01T00:28:44;18.30;86.90
52963;DHT22;38827;53.024;6.596;2022-08-01T00:31:10;18.20;87.00
52963;DHT22;38827;53.024;6.596;2022-08-01T00:33:35;18.20;86.80
52963;DHT22;38827;53.024;6.596;2022-08-01T00:36:01;18.20;86.90
52963;DHT22;38827;53.024;6.596;2022-08-01T00:38:27;18.20;86.90
52963;DHT22;38827;53.024;6.596;2022-08-01T00:40:52;18.20;86.80
52963;DHT22;38827;53.024;6.596;2022-08-01T00:43:18;18.20;86.80
52963;DHT22;38827;53.024;6.596;2022-08-01T00:45:43;18.20;87.00
52963;DHT22;38827;53.024;6.596;2022-08-01T00:48:09;18.20;86.90
52963;DHT22;38827;53.024;6.596;2022-08-01T00:50:35;18.20;87.10
52963;DHT22;38827;53.024;6.596;2022-08-01T00:53:01;18.20;87.10
52963;DHT22;38827;53.024;6.596;2022-08-01T00:55:28;18.20;87.10
52963;DHT22;38827;53.024;6.596;2022-08-01T00:57:54;18.20;87.10
52963;DHT22;38827;53.024;6.596;2022-08-01T01:00:20;18.20;87.10
52963;DHT22;38827;53.024;6.596;2022-08-01T01:02:45;18.20;87.10
52963;DHT22;38827;53.024;6.596;2022-08-01T01:05:14;18.20;87.10
52963;DHT22;38827;53.024;6.596;2022-08-01T01:08:02;18.20;87.20
52963;DHT22;38827;53.024;6.596;2022-08-01T01:10:46;18.20;87.10
52963;DHT22;38827;53.024;6.596;2022-08-01T01:13:20;18.20;87.10
52963;DHT22;38827;53.024;6.596;2022-08-01T01:16:01;18.20;87.20
52963;DHT22;38827;53.024;6.596;2022-08-01T01:18:33;18.20;87.30
52963;DHT22;38827;53.024;6.596;2022-08-01T01:24:00;18.10;87.20
52963;DHT22;38827;53.024;6.596;2022-08-01T01:26:45;18.10;87.20
52963;DHT22;38827;53.024;6.596;2022-08-01T01:32:09;18.10;87.00
52963;DHT22;38827;53.024;6.596;2022-08-01T01:34:40;18.10;87.30
52963;DHT22;38827;53.024;6.596;2022-08-01T01:37:12;18.10;87.40
52963;DHT22;38827;53.024;6.596;2022-08-01T01:39:40;18.20;87.30
52963;DHT22;38827;53.024;6.596;2022-08-01T01:42:06;18.10;87.20
52963;DHT22;38827;53.024;6.596;2022-08-01T01:44:34;18.10;86.70
52963;DHT22;38827;53.024;6.596;2022-08-01T01:47:02;18.10;87.10
52963;DHT22;38827;53.024;6.596;2022-08-01T01:49:28;18.20;87.20
52963;DHT22;38827;53.024;6.596;2022-08-01T01:51:56;18.20;86.90
52963;DHT22;38827;53.024;6.596;2022-08-01T01:54:24;18.20;87.00
52963;DHT22;38827;53.024;6.596;2022-08-01T01:56:55;18.20;87.00
52963;DHT22;38827;53.024;6.596;2022-08-01T01:59:27;18.20;87.00
52963;DHT22;38827;53.024;6.596;2022-08-01T02:01:56;18.20;86.80
52963;DHT22;38827;53.024;6.596;2022-08-01T02:04:23;18.20;86.90
52963;DHT22;38827;53.024;6.596;2022-08-01T02:06:50;18.20;86.70
52963;DHT22;38827;53.024;6.596;2022-08-01T02:09:18;18.20;86.10
52963;DHT22;38827;53.024;6.596;2022-08-01T02:11:49;18.20;86.80
52963;DHT22;38827;53.024;6.596;2022-08-01T02:14:17;18.20;86.50
52963;DHT22;38827;53.024;6.596;2022-08-01T02:16:47;18.20;86.50
52963;DHT22;38827;53.024;6.596;2022-08-01T02:19:13;18.20;86.30
52963;DHT22;38827;53.024;6.596;2022-08-01T02:21:47;18.20;86.10
52963;DHT22;38827;53.024;6.596;2022-08-01T02:30:06;18.10;85.70
52963;DHT22;38827;53.024;6.596;2022-08-01T02:32:38;18.10;85.60
52963;DHT22;38827;53.024;6.596;2022-08-01T02:35:07;18.10;85.50
52963;DHT22;38827;53.024;6.596;2022-08-01T02:37:37;18.00;85.50
52963;DHT22;38827;53.024;6.596;2022-08-01T02:40:04;18.10;85.50
52963;DHT22;38827;53.024;6.596;2022-08-01T02:42:31;18.00;85.40
52963;DHT22;38827;53.024;6.596;2022-08-01T02:44:58;18.00;85.40
52963;DHT22;38827;53.024;6.596;2022-08-01T02:47:25;18.00;85.30
52963;DHT22;38827;53.024;6.596;2022-08-01T02:49:54;18.00;85.20
52963;DHT22;38827;53.024;6.596;2022-08-01T02:52:21;18.00;85.30
52963;DHT22;38827;53.024;6.596;2022-08-01T02:54:50;18.00;85.20
52963;DHT22;38827;53.024;6.596;2022-08-01T02:57:18;18.00;85.20
52963;DHT22;38827;53.024;6.596;2022-08-01T02:59:46;18.00;85.10
52963;DHT22;38827;53.024;6.596;2022-08-01T03:02:13;18.00;85.00
52963;DHT22;38827;53.024;6.596;2022-08-01T03:04:40;17.90;84.50
52963;DHT22;38827;53.024;6.596;2022-08-01T03:07:11;17.90;85.20
52963;DHT22;38827;53.024;6.596;2022-08-01T03:09:44;17.90;85.00
52963;DHT22;38827;53.024;6.596;2022-08-01T03:12:14;17.90;84.90
52963;DHT22;38827;53.024;6.596;2022-08-01T03:14:43;17.90;84.90
52963;DHT22;38827;53.024;6.596;2022-08-01T03:17:10;17.90;84.80
52963;DHT22;38827;53.024;6.596;2022-08-01T03:19:38;17.90;84.80
52963;DHT22;38827;53.024;6.596;2022-08-01T03:22:09;17.80;84.70
52963;DHT22;38827;53.024;6.596;2022-08-01T03:24:38;17.90;84.80
52963;DHT22;38827;53.024;6.596;2022-08-01T03:27:06;17.80;84.60
52963;DHT22;38827;53.024;6.596;2022-08-01T03:29:33;17.80;84.60
52963;DHT22;38827;53.024;6.596;2022-08-01T03:32:00;17.80;84.50
52963;DHT22;38827;53.024;6.596;2022-08-01T03:34:30;17.80;84.50
52963;DHT22;38827;53.024;6.596;2022-08-01T03:39:53;17.80;84.40
52963;DHT22;38827;53.024;6.596;2022-08-01T03:42:24;17.80;84.20
52963;DHT22;38827;53.024;6.596;2022-08-01T03:45:00;17.80;84.40
52963;DHT22;38827;53.024;6.596;2022-08-01T03:47:32;17.70;84.50
52963;DHT22;38827;53.024;6.596;2022-08-01T03:50:05;17.80;84.50
52963;DHT22;38827;53.024;6.596;2022-08-01T03:52:33;17.70;84.40
52963;DHT22;38827;53.024;6.596;2022-08-01T03:55:05;17.70;84.50
52963;DHT22;38827;53.024;6.596;2022-08-01T03:57:33;17.70;84.40
52963;DHT22;38827;53.024;6.596;2022-08-01T03:59:59;17.70;84.20
52963;DHT22;38827;53.024;6.596;2022-08-01T04:02:26;17.70;84.10
52963;DHT22;38827;53.024;6.596;2022-08-01T04:04:52;17.70;84.10
52963;DHT22;38827;53.024;6.596;2022-08-01T04:07:40;17.70;83.60
52963;DHT22;38827;53.024;6.596;2022-08-01T04:10:11;17.70;84.20
52963;DHT22;38827;53.024;6.596;2022-08-01T04:12:36;17.70;83.90
52963;DHT22;38827;53.024;6.596;2022-08-01T04:15:06;17.70;83.70
52963;DHT22;38827;53.024;6.596;2022-08-01T04:17:31;17.70;83.60
52963;DHT22;38827;53.024;6.596;2022-08-01T04:19:57;17.70;83.60
52963;DHT22;38827;53.024;6.596;2022-08-01T04:22:23;17.70;83.50
52963;DHT22;38827;53.024;6.596;2022-08-01T04:24:52;17.70;83.30
52963;DHT22;38827;53.024;6.596;2022-08-01T04:27:23;17.60;83.10
52963;DHT22;38827;53.024;6.596;2022-08-01T04:29:54;17.60;83.10
52963;DHT22;38827;53.024;6.596;2022-08-01T04:32:22;17.60;83.00
52963;DHT22;38827;53.024;6.596;2022-08-01T04:34:50;17.60;83.00
52963;DHT22;38827;53.024;6.596;2022-08-01T04:37:17;17.60;82.80
52963;DHT22;38827;53.024;6.596;2022-08-01T04:39:45;17.60;82.90
52963;DHT22;38827;53.024;6.596;2022-08-01T04:42:14;17.60;83.00
52963;DHT22;38827;53.024;6.596;2022-08-01T04:44:41;17.60;83.00
52963;DHT22;38827;53.024;6.596;2022-08-01T04:47:07;17.60;83.00
52963;DHT22;38827;53.024;6.596;2022-08-01T04:49:34;17.60;83.00
52963;DHT22;38827;53.024;6.596;2022-08-01T04:52:00;17.60;83.00
52963;DHT22;38827;53.024;6.596;2022-08-01T04:54:27;17.60;83.10
52963;DHT22;38827;53.024;6.596;2022-08-01T04:56:56;17.60;83.00
52963;DHT22;38827;53.024;6.596;2022-08-01T04:59:28;17.70;82.80
52963;DHT22;38827;53.024;6.596;2022-08-01T05:02:15;17.70;82.70
52963;DHT22;38827;53.024;6.596;2022-08-01T05:04:41;17.70;82.50
52963;DHT22;38827;53.024;6.596;2022-08-01T05:07:08;17.60;82.50
52963;DHT22;38827;53.024;6.596;2022-08-01T05:09:34;17.60;82.40
52963;DHT22;38827;53.024;6.596;2022-08-01T05:12:02;17.60;82.40
52963;DHT22;38827;53.024;6.596;2022-08-01T05:14:29;17.70;82.40
52963;DHT22;38827;53.024;6.596;2022-08-01T05:16:59;17.60;82.30
52963;DHT22;38827;53.024;6.596;2022-08-01T05:19:32;17.70;82.30
52963;DHT22;38827;53.024;6.596;2022-08-01T05:21:59;17.70;82.10
52963;DHT22;38827;53.024;6.596;2022-08-01T05:24:27;17.70;82.00
52963;DHT22;38827;53.024;6.596;2022-08-01T05:26:54;17.70;82.00
52963;DHT22;38827;53.024;6.596;2022-08-01T05:29:20;17.80;81.80
52963;DHT22;38827;53.024;6.596;2022-08-01T05:31:46;17.80;81.60
52963;DHT22;38827;53.024;6.596;2022-08-01T05:34:11;17.80;81.60
52963;DHT22;38827;53.024;6.596;2022-08-01T05:36:37;17.80;81.30
52963;DHT22;38827;53.024;6.596;2022-08-01T05:39:04;17.80;81.20
52963;DHT22;38827;53.024;6.596;2022-08-01T05:41:30;17.80;81.00
52963;DHT22;38827;53.024;6.596;2022-08-01T05:43:55;17.80;80.90
52963;DHT22;38827;53.024;6.596;2022-08-01T05:46:21;17.80;80.50
52963;DHT22;38827;53.024;6.596;2022-08-01T05:48:47;17.80;80.20
52963;DHT22;38827;53.024;6.596;2022-08-01T05:51:13;17.80;80.10
52963;DHT22;38827;53.024;6.596;2022-08-01T05:53:40;17.80;80.00
52963;DHT22;38827;53.024;6.596;2022-08-01T05:56:06;17.80;79.90
52963;DHT22;38827;53.024;6.596;2022-08-01T05:58:31;17.80;79.90
52963;DHT22;38827;53.024;6.596;2022-08-01T06:00:58;17.90;79.80
52963;DHT22;38827;53.024;6.596;2022-08-01T06:03:24;17.90;79.70
52963;DHT22;38827;53.024;6.596;2022-08-01T06:05:51;17.90;79.80
52963;DHT22;38827;53.024;6.596;2022-08-01T06:08:18;17.90;79.60
52963;DHT22;38827;53.024;6.596;2022-08-01T06:10:43;17.90;79.40
52963;DHT22;38827;53.024;6.596;2022-08-01T06:13:09;18.00;79.10
52963;DHT22;38827;53.024;6.596;2022-08-01T06:15:34;18.00;79.00
52963;DHT22;38827;53.024;6.596;2022-08-01T06:18:00;18.00;78.80
52963;DHT22;38827;53.024;6.596;2022-08-01T06:20:26;18.00;78.40
52963;DHT22;38827;53.024;6.596;2022-08-01T06:22:51;18.00;77.90
52963;DHT22;38827;53.024;6.596;2022-08-01T06:25:18;18.00;77.70
52963;DHT22;38827;53.024;6.596;2022-08-01T06:27:44;18.10;77.50
52963;DHT22;38827;53.024;6.596;2022-08-01T06:30:10;18.10;77.60
52963;DHT22;38827;53.024;6.596;2022-08-01T06:32:36;18.10;77.60
52963;DHT22;38827;53.024;6.596;2022-08-01T06:35:02;18.20;77.60
52963;DHT22;38827;53.024;6.596;2022-08-01T06:37:31;18.20;77.50
52963;DHT22;38827;53.024;6.596;2022-08-01T06:40:04;18.20;76.80
52963;DHT22;38827;53.024;6.596;2022-08-01T06:42:30;18.20;77.00
52963;DHT22;38827;53.024;6.596;2022-08-01T06:45:03;18.20;77.20
52963;DHT22;38827;53.024;6.596;2022-08-01T06:47:29;18.20;77.20
52963;DHT22;38827;53.024;6.596;2022-08-01T06:49:55;18.30;77.30
52963;DHT22;38827;53.024;6.596;2022-08-01T06:52:20;18.30;77.20
52963;DHT22;38827;53.024;6.596;2022-08-01T06:54:46;18.20;76.80
52963;DHT22;38827;53.024;6.596;2022-08-01T06:57:15;18.20;76.80
52963;DHT22;38827;53.024;6.596;2022-08-01T06:59:40;18.20;76.40
52963;DHT22;38827;53.024;6.596;2022-08-01T07:02:07;18.10;76.50
52963;DHT22;38827;53.024;6.596;2022-08-01T07:04:33;18.10;76.40
52963;DHT22;38827;53.024;6.596;2022-08-01T07:06:59;18.10;76.00
52963;DHT22;38827;53.024;6.596;2022-08-01T07:09:25;18.10;76.00
52963;DHT22;38827;53.024;6.596;2022-08-01T07:11:51;18.10;75.60
52963;DHT22;38827;53.024;6.596;2022-08-01T07:14:18;18.20;75.40
52963;DHT22;38827;53.024;6.596;2022-08-01T07:16:44;18.20;75.30
52963;DHT22;38827;53.024;6.596;2022-08-01T07:19:10;18.20;75.10
52963;DHT22;38827;53.024;6.596;2022-08-01T07:21:36;18.20;74.80
52963;DHT22;38827;53.024;6.596;2022-08-01T07:24:01;18.30;74.70
52963;DHT22;38827;53.024;6.596;2022-08-01T07:26:27;18.30;74.40
52963;DHT22;38827;53.024;6.596;2022-08-01T07:28:53;18.40;74.50
52963;DHT22;38827;53.024;6.596;2022-08-01T07:31:19;18.50;74.10
52963;DHT22;38827;53.024;6.596;2022-08-01T07:33:45;18.50;73.90
52963;DHT22;38827;53.024;6.596;2022-08-01T07:36:11;18.60;73.40
52963;DHT22;38827;53.024;6.596;2022-08-01T07:38:36;18.70;72.80
52963;DHT22;38827;53.024;6.596;2022-08-01T07:41:02;18.70;72.10
52963;DHT22;38827;53.024;6.596;2022-08-01T07:43:28;18.80;72.10
52963;DHT22;38827;53.024;6.596;2022-08-01T07:45:56;18.90;72.30
52963;DHT22;38827;53.024;6.596;2022-08-01T07:48:22;18.90;71.80
52963;DHT22;38827;53.024;6.596;2022-08-01T07:50:50;19.00;71.90
52963;DHT22;38827;53.024;6.596;2022-08-01T07:53:16;19.10;71.40
52963;DHT22;38827;53.024;6.596;2022-08-01T07:55:42;19.20;70.40
52963;DHT22;38827;53.024;6.596;2022-08-01T07:58:08;19.30;70.30
52963;DHT22;38827;53.024;6.596;2022-08-01T08:00:33;19.40;69.70
52963;DHT22;38827;53.024;6.596;2022-08-01T08:02:59;19.60;68.90
52963;DHT22;38827;53.024;6.596;2022-08-01T08:05:28;19.70;68.60
52963;DHT22;38827;53.024;6.596;2022-08-01T08:07:56;20.00;68.10
52963;DHT22;38827;53.024;6.596;2022-08-01T08:10:22;20.20;67.50
52963;DHT22;38827;53.024;6.596;2022-08-01T08:12:47;20.30;66.70
52963;DHT22;38827;53.024;6.596;2022-08-01T08:15:14;20.40;66.40
52963;DHT22;38827;53.024;6.596;2022-08-01T08:17:39;20.50;65.80
52963;DHT22;38827;53.024;6.596;2022-08-01T08:20:06;20.60;65.40
52963;DHT22;38827;53.024;6.596;2022-08-01T08:22:33;20.70;64.20
52963;DHT22;38827;53.024;6.596;2022-08-01T08:24:59;20.90;63.10
52963;DHT22;38827;53.024;6.596;2022-08-01T08:27:25;21.00;63.20
52963;DHT22;38827;53.024;6.596;2022-08-01T08:29:51;21.00;63.00
52963;DHT22;38827;53.024;6.596;2022-08-01T08:32:16;21.00;62.30
52963;DHT22;38827;53.024;6.596;2022-08-01T08:34:45;21.00;62.10
52963;DHT22;38827;53.024;6.596;2022-08-01T08:37:11;21.00;61.70
52963;DHT22;38827;53.024;6.596;2022-08-01T08:39:37;21.00;61.40
52963;DHT22;38827;53.024;6.596;2022-08-01T08:42:06;21.20;61.80
52963;DHT22;38827;53.024;6.596;2022-08-01T08:44:32;21.40;61.60
52963;DHT22;38827;53.024;6.596;2022-08-01T08:47:01;21.60;61.50
52963;DHT22;38827;53.024;6.596;2022-08-01T08:49:28;21.70;60.60
52963;DHT22;38827;53.024;6.596;2022-08-01T08:51:58;21.70;60.20
52963;DHT22;38827;53.024;6.596;2022-08-01T08:54:25;21.70;59.50
52963;DHT22;38827;53.024;6.596;2022-08-01T08:56:53;21.80;58.70
52963;DHT22;38827;53.024;6.596;2022-08-01T08:59:20;22.00;59.20
52963;DHT22;38827;53.024;6.596;2022-08-01T09:01:47;22.20;58.00
52963;DHT22;38827;53.024;6.596;2022-08-01T09:04:13;22.50;56.80
52963;DHT22;38827;53.024;6.596;2022-08-01T09:06:39;22.70;56.10
52963;DHT22;38827;53.024;6.596;2022-08-01T09:09:06;23.00;55.70
52963;DHT22;38827;53.024;6.596;2022-08-01T09:11:33;23.20;55.30
52963;DHT22;38827;53.024;6.596;2022-08-01T09:16:44;23.30;55.80
52963;DHT22;38827;53.024;6.596;2022-08-01T09:19:16;23.40;55.30
52963;DHT22;38827;53.024;6.596;2022-08-01T09:22:02;23.50;54.50
52963;DHT22;38827;53.024;6.596;2022-08-01T09:24:30;23.50;54.20
52963;DHT22;38827;53.024;6.596;2022-08-01T09:26:56;23.70;54.40
52963;DHT22;38827;53.024;6.596;2022-08-01T09:29:26;24.00;53.20
52963;DHT22;38827;53.024;6.596;2022-08-01T09:31:52;24.20;52.20
52963;DHT22;38827;53.024;6.596;2022-08-01T09:34:26;24.30;52.30
52963;DHT22;38827;53.024;6.596;2022-08-01T09:37:01;24.50;50.70
52963;DHT22;38827;53.024;6.596;2022-08-01T09:39:32;24.60;52.40
52963;DHT22;38827;53.024;6.596;2022-08-01T09:42:01;25.00;49.90
52963;DHT22;38827;53.024;6.596;2022-08-01T09:44:42;25.40;50.80
52963;DHT22;38827;53.024;6.596;2022-08-01T09:47:08;25.80;48.20
52963;DHT22;38827;53.024;6.596;2022-08-01T09:49:36;26.00;47.50
52963;DHT22;38827;53.024;6.596;2022-08-01T09:52:16;26.10;45.90
52963;DHT22;38827;53.024;6.596;2022-08-01T09:54:44;26.10;46.30
52963;DHT22;38827;53.024;6.596;2022-08-01T09:57:17;26.20;46.30
52963;DHT22;38827;53.024;6.596;2022-08-01T09:59:45;26.10;44.90
52963;DHT22;38827;53.024;6.596;2022-08-01T10:02:12;25.80;45.50
52963;DHT22;38827;53.024;6.596;2022-08-01T10:04:50;25.90;45.80
52963;DHT22;38827;53.024;6.596;2022-08-01T10:07:17;25.90;45.50
52963;DHT22;38827;53.024;6.596;2022-08-01T10:09:44;25.70;45.60
52963;DHT22;38827;53.024;6.596;2022-08-01T10:12:12;25.90;46.10
52963;DHT22;38827;53.024;6.596;2022-08-01T10:14:39;26.60;44.40
52963;DHT22;38827;53.024;6.596;2022-08-01T10:17:08;27.40;43.90
52963;DHT22;38827;53.024;6.596;2022-08-01T10:19:35;27.90;42.00
52963;DHT22;38827;53.024;6.596;2022-08-01T10:22:03;27.80;41.80
52963;DHT22;38827;53.024;6.596;2022-08-01T10:24:30;27.30;41.70
52963;DHT22;38827;53.024;6.596;2022-08-01T10:27:03;27.20;42.10
52963;DHT22;38827;53.024;6.596;2022-08-01T10:29:40;27.50;41.10
52963;DHT22;38827;53.024;6.596;2022-08-01T10:32:09;27.80;41.10
52963;DHT22;38827;53.024;6.596;2022-08-01T10:34:36;28.40;40.40
52963;DHT22;38827;53.024;6.596;2022-08-01T10:37:04;28.60;40.10
52963;DHT22;38827;53.024;6.596;2022-08-01T10:39:31;28.80;39.30
52963;DHT22;38827;53.024;6.596;2022-08-01T10:41:57;29.10;39.00
52963;DHT22;38827;53.024;6.596;2022-08-01T10:44:25;29.30;38.80
52963;DHT22;38827;53.024;6.596;2022-08-01T10:47:01;29.50;38.90
52963;DHT22;38827;53.024;6.596;2022-08-01T10:49:30;29.90;37.90
52963;DHT22;38827;53.024;6.596;2022-08-01T10:51:56;30.10;37.30
52963;DHT22;38827;53.024;6.596;2022-08-01T10:54:25;30.00;37.40
52963;DHT22;38827;53.024;6.596;2022-08-01T10:56:53;30.10;38.40
52963;DHT22;38827;53.024;6.596;2022-08-01T10:59:29;30.30;38.60
52963;DHT22;38827;53.024;6.596;2022-08-01T11:02:03;30.50;37.50
52963;DHT22;38827;53.024;6.596;2022-08-01T11:04:54;30.50;37.30
52963;DHT22;38827;53.024;6.596;2022-08-01T11:07:45;30.80;36.00
52963;DHT22;38827;53.024;6.596;2022-08-01T11:10:29;31.20;35.30
52963;DHT22;38827;53.024;6.596;2022-08-01T11:12:58;31.20;35.60
52963;DHT22;38827;53.024;6.596;2022-08-01T11:15:26;31.00;35.50
52963;DHT22;38827;53.024;6.596;2022-08-01T11:17:57;30.50;35.40
52963;DHT22;38827;53.024;6.596;2022-08-01T11:20:25;30.10;35.80
52963;DHT22;38827;53.024;6.596;2022-08-01T11:26:08;30.10;36.90
52963;DHT22;38827;53.024;6.596;2022-08-01T11:30:44;29.80;35.90
52963;DHT22;38827;53.024;6.596;2022-08-01T11:33:12;29.70;36.30
52963;DHT22;38827;53.024;6.596;2022-08-01T11:36:16;29.60;37.10
52963;DHT22;38827;53.024;6.596;2022-08-01T11:38:25;29.50;37.50
52963;DHT22;38827;53.024;6.596;2022-08-01T11:46:55;30.00;36.40
52963;DHT22;38827;53.024;6.596;2022-08-01T11:49:28;30.20;35.50
52963;DHT22;38827;53.024;6.596;2022-08-01T11:54:30;30.50;35.70
52963;DHT22;38827;53.024;6.596;2022-08-01T11:57:01;30.50;36.30
52963;DHT22;38827;53.024;6.596;2022-08-01T11:59:27;30.50;36.30
52963;DHT22;38827;53.024;6.596;2022-08-01T12:01:53;30.50;35.20
52963;DHT22;38827;53.024;6.596;2022-08-01T12:04:19;30.40;35.40
52963;DHT22;38827;53.024;6.596;2022-08-01T12:06:45;29.90;36.10
52963;DHT22;38827;53.024;6.596;2022-08-01T12:09:20;29.90;35.70
52963;DHT22;38827;53.024;6.596;2022-08-01T12:11:46;30.20;35.20
52963;DHT22;38827;53.024;6.596;2022-08-01T12:14:19;30.50;34.20
52963;DHT22;38827;53.024;6.596;2022-08-01T12:16:51;31.00;33.70
52963;DHT22;38827;53.024;6.596;2022-08-01T12:19:19;31.40;34.00
52963;DHT22;38827;53.024;6.596;2022-08-01T12:21:46;31.50;33.40
52963;DHT22;38827;53.024;6.596;2022-08-01T12:24:29;31.40;33.10
52963;DHT22;38827;53.024;6.596;2022-08-01T12:26:55;31.40;32.90
52963;DHT22;38827;53.024;6.596;2022-08-01T12:29:41;31.10;33.00
52963;DHT22;38827;53.024;6.596;2022-08-01T12:32:29;30.90;33.70
52963;DHT22;38827;53.024;6.596;2022-08-01T12:35:10;31.10;33.50
52963;DHT22;38827;53.024;6.596;2022-08-01T12:37:56;31.30;32.90
52963;DHT22;38827;53.024;6.596;2022-08-01T12:40:24;31.40;32.60
52963;DHT22;38827;53.024;6.596;2022-08-01T12:42:55;31.30;33.40
52963;DHT22;38827;53.024;6.596;2022-08-01T12:45:24;31.40;32.60
52963;DHT22;38827;53.024;6.596;2022-08-01T12:47:52;31.50;32.30
52963;DHT22;38827;53.024;6.596;2022-08-01T12:50:22;31.30;32.90
52963;DHT22;38827;53.024;6.596;2022-08-01T12:52:49;31.40;32.00
52963;DHT22;38827;53.024;6.596;2022-08-01T12:55:19;31.70;32.00
52963;DHT22;38827;53.024;6.596;2022-08-01T12:57:48;32.10;33.20
52963;DHT22;38827;53.024;6.596;2022-08-01T13:00:23;32.30;32.10
52963;DHT22;38827;53.024;6.596;2022-08-01T13:03:00;32.40;30.90
52963;DHT22;38827;53.024;6.596;2022-08-01T13:05:26;32.60;30.50
52963;DHT22;38827;53.024;6.596;2022-08-01T13:07:52;32.60;30.40
52963;DHT22;38827;53.024;6.596;2022-08-01T13:10:29;32.70;30.80
52963;DHT22;38827;53.024;6.596;2022-08-01T13:12:57;32.90;30.40
52963;DHT22;38827;53.024;6.596;2022-08-01T13:15:28;32.90;30.70
52963;DHT22;38827;53.024;6.596;2022-08-01T13:17:56;32.60;29.90
52963;DHT22;38827;53.024;6.596;2022-08-01T13:20:28;32.30;30.60
52963;DHT22;38827;53.024;6.596;2022-08-01T13:22:55;32.10;30.80
52963;DHT22;38827;53.024;6.596;2022-08-01T13:25:20;31.70;30.80
52963;DHT22;38827;53.024;6.596;2022-08-01T13:27:46;31.50;31.50
52963;DHT22;38827;53.024;6.596;2022-08-01T13:30:17;31.20;31.80
52963;DHT22;38827;53.024;6.596;2022-08-01T13:32:44;31.00;31.30
52963;DHT22;38827;53.024;6.596;2022-08-01T13:35:22;31.00;31.10
52963;DHT22;38827;53.024;6.596;2022-08-01T13:37:50;31.10;30.80
52963;DHT22;38827;53.024;6.596;2022-08-01T13:40:24;31.00;31.40
52963;DHT22;38827;53.024;6.596;2022-08-01T13:42:50;31.00;31.40
52963;DHT22;38827;53.024;6.596;2022-08-01T13:45:16;31.10;31.20
52963;DHT22;38827;53.024;6.596;2022-08-01T13:47:43;31.20;31.00
52963;DHT22;38827;53.024;6.596;2022-08-01T13:50:09;31.30;31.10
52963;DHT22;38827;53.024;6.596;2022-08-01T13:52:36;31.20;31.20
52963;DHT22;38827;53.024;6.596;2022-08-01T13:55:01;30.90;31.60
52963;DHT22;38827;53.024;6.596;2022-08-01T13:57:28;30.40;32.30
52963;DHT22;38827;53.024;6.596;2022-08-01T13:59:54;29.90;32.70
52963;DHT22;38827;53.024;6.596;2022-08-01T14:02:20;29.60;33.10
52963;DHT22;38827;53.024;6.596;2022-08-01T14:04:46;29.30;32.70
52963;DHT22;38827;53.024;6.596;2022-08-01T14:07:14;29.10;33.20
52963;DHT22;38827;53.024;6.596;2022-08-01T14:09:40;28.90;33.00
52963;DHT22;38827;53.024;6.596;2022-08-01T14:12:06;28.70;33.10
52963;DHT22;38827;53.024;6.596;2022-08-01T14:14:32;28.50;33.60
52963;DHT22;38827;53.024;6.596;2022-08-01T14:16:57;28.40;34.50
52963;DHT22;38827;53.024;6.596;2022-08-01T14:19:26;28.20;34.30
52963;DHT22;38827;53.024;6.596;2022-08-01T14:21:52;28.10;34.10
52963;DHT22;38827;53.024;6.596;2022-08-01T14:24:18;28.00;33.60
52963;DHT22;38827;53.024;6.596;2022-08-01T14:26:43;27.90;34.80
52963;DHT22;38827;53.024;6.596;2022-08-01T14:29:10;27.90;34.50
52963;DHT22;38827;53.024;6.596;2022-08-01T14:31:35;27.90;34.00
52963;DHT22;38827;53.024;6.596;2022-08-01T14:34:01;27.80;34.40
52963;DHT22;38827;53.024;6.596;2022-08-01T14:36:27;27.80;34.50
52963;DHT22;38827;53.024;6.596;2022-08-01T14:38:53;27.80;35.20
52963;DHT22;38827;53.024;6.596;2022-08-01T14:41:18;27.70;35.10
52963;DHT22;38827;53.024;6.596;2022-08-01T14:43:44;27.40;35.40
52963;DHT22;38827;53.024;6.596;2022-08-01T14:46:10;27.30;35.80
52963;DHT22;38827;53.024;6.596;2022-08-01T14:48:39;27.20;35.90
52963;DHT22;38827;53.024;6.596;2022-08-01T14:51:04;27.20;35.80
52963;DHT22;38827;53.024;6.596;2022-08-01T14:53:32;27.10;35.90
52963;DHT22;38827;53.024;6.596;2022-08-01T14:55:59;27.10;36.10
52963;DHT22;38827;53.024;6.596;2022-08-01T14:58:24;27.10;35.80
52963;DHT22;38827;53.024;6.596;2022-08-01T15:00:50;27.20;36.00
52963;DHT22;38827;53.024;6.596;2022-08-01T15:03:20;27.30;36.10
52963;DHT22;38827;53.024;6.596;2022-08-01T15:05:46;27.40;35.40
52963;DHT22;38827;53.024;6.596;2022-08-01T15:08:12;27.30;36.10
52963;DHT22;38827;53.024;6.596;2022-08-01T15:10:38;27.40;35.30
52963;DHT22;38827;53.024;6.596;2022-08-01T15:13:03;27.40;35.30
52963;DHT22;38827;53.024;6.596;2022-08-01T15:15:29;27.30;35.80
52963;DHT22;38827;53.024;6.596;2022-08-01T15:17:55;27.10;35.70
52963;DHT22;38827;53.024;6.596;2022-08-01T15:20:21;27.00;36.30
52963;DHT22;38827;53.024;6.596;2022-08-01T15:22:47;26.80;36.40
52963;DHT22;38827;53.024;6.596;2022-08-01T15:25:14;26.60;36.90
52963;DHT22;38827;53.024;6.596;2022-08-01T15:27:40;26.50;37.50
52963;DHT22;38827;53.024;6.596;2022-08-01T15:30:06;26.40;37.20
52963;DHT22;38827;53.024;6.596;2022-08-01T15:32:32;26.30;37.10
52963;DHT22;38827;53.024;6.596;2022-08-01T15:34:59;26.20;37.60
52963;DHT22;38827;53.024;6.596;2022-08-01T15:37:25;26.00;38.00
52963;DHT22;38827;53.024;6.596;2022-08-01T15:39:52;25.90;38.30
52963;DHT22;38827;53.024;6.596;2022-08-01T15:42:18;25.70;38.20
52963;DHT22;38827;53.024;6.596;2022-08-01T15:44:44;25.50;38.60
52963;DHT22;38827;53.024;6.596;2022-08-01T15:47:10;25.50;38.70
52963;DHT22;38827;53.024;6.596;2022-08-01T15:49:37;25.40;38.70
52963;DHT22;38827;53.024;6.596;2022-08-01T15:52:05;25.40;38.40
52963;DHT22;38827;53.024;6.596;2022-08-01T15:54:31;25.30;38.50
52963;DHT22;38827;53.024;6.596;2022-08-01T15:56:56;25.20;38.70
52963;DHT22;38827;53.024;6.596;2022-08-01T15:59:22;25.10;38.80
52963;DHT22;38827;53.024;6.596;2022-08-01T16:01:48;25.10;39.40
52963;DHT22;38827;53.024;6.596;2022-08-01T16:04:15;25.00;39.30
52963;DHT22;38827;53.024;6.596;2022-08-01T16:06:42;25.00;40.10
52963;DHT22;38827;53.024;6.596;2022-08-01T16:09:07;24.90;40.10